Terminal Aerodrome Forecast
Issued by NWS

Current Version | Previous Version | Graphics & Text | Print | Product List | Glossary On
Versions: 1 2 3 4 5 6 7 8 9 10 11 12 13 14 15 16
000
FTUS41 KPBZ 050237 AAA
TAFHLG
TAF AMD
KHLG 050237Z 0503/0524 29005KT P6SM BKN070
     FM050700 25005KT 3SM BR OVC030
     FM051200 24007KT 4SM -SHRA BR OVC025=

USA.gov is the U.S. government's official web portal to all federal, state and local government web resources and services.